createdAt,value
2022-10-11T00:00:14.815Z,1.92
2022-10-11T00:02:42.435Z,2.30
2022-10-11T00:05:11.009Z,2.05
2022-10-11T00:07:38.917Z,2.10
2022-10-11T00:10:07.742Z,2.20
2022-10-11T00:12:35.773Z,2.22
2022-10-11T00:15:05.267Z,2.00
2022-10-11T00:17:33.530Z,2.58
2022-10-11T00:20:01.180Z,1.80
2022-10-11T00:22:28.674Z,1.80
2022-10-11T00:24:56.501Z,2.00
2022-10-11T00:27:24.000Z,2.10
2022-10-11T00:29:51.654Z,1.95
2022-10-11T00:32:19.508Z,1.85
2022-10-11T00:34:47.146Z,1.92
2022-10-11T00:37:14.579Z,2.00
2022-10-11T00:39:42.105Z,1.77
2022-10-11T00:42:17.288Z,1.90
2022-10-11T00:44:48.726Z,1.88
2022-10-11T00:47:22.020Z,2.28
2022-10-11T00:49:59.528Z,2.63
2022-10-11T00:52:45.701Z,2.33
2022-10-11T00:55:16.616Z,1.80
2022-10-11T00:57:48.610Z,2.42
2022-10-11T01:00:16.685Z,2.10
2022-10-11T01:02:44.309Z,2.00
2022-10-11T01:05:29.069Z,2.13
2022-10-11T01:08:02.308Z,2.38
2022-10-11T01:10:30.139Z,2.22
2022-10-11T01:13:14.463Z,2.20
2022-10-11T01:15:53.118Z,2.00
2022-10-11T01:18:25.724Z,1.88
2022-10-11T01:24:08.193Z,1.80
2022-10-11T01:27:14.670Z,1.55
2022-10-11T01:29:51.010Z,1.92
2022-10-11T01:32:30.148Z,2.00
2022-10-11T01:35:21.135Z,1.90
2022-10-11T01:38:17.316Z,2.13
2022-10-11T01:41:00.150Z,2.00
2022-10-11T01:45:58.417Z,2.20
2022-10-11T01:48:25.873Z,2.28
2022-10-11T01:50:57.238Z,2.33
2022-10-11T01:53:31.226Z,2.00
2022-10-11T01:56:35.101Z,1.80
2022-10-11T01:59:39.567Z,1.75
2022-10-11T02:02:32.832Z,1.90
2022-10-11T02:05:06.844Z,2.15
2022-10-11T02:07:55.413Z,1.90
2022-10-11T02:10:31.371Z,2.45
2022-10-11T02:13:05.589Z,1.80
2022-10-11T02:15:35.790Z,1.95
2022-10-11T02:18:08.217Z,1.90
2022-10-11T02:20:40.707Z,1.80
2022-10-11T02:23:17.418Z,1.80
2022-10-11T02:25:46.052Z,2.05
2022-10-11T02:28:20.799Z,1.95
2022-10-11T02:30:51.619Z,2.03
2022-10-11T02:33:24.478Z,1.83
2022-10-11T02:36:01.885Z,1.92
2022-10-11T02:38:36.984Z,1.90
2022-10-11T02:41:16.039Z,2.00
2022-10-11T02:43:49.691Z,2.15
2022-10-11T02:46:17.862Z,2.17
2022-10-11T02:48:45.322Z,1.98
2022-10-11T02:51:14.460Z,1.70
2022-10-11T02:53:42.061Z,1.83
2022-10-11T02:56:09.729Z,1.98
2022-10-11T02:58:37.269Z,1.80
2022-10-11T03:01:05.002Z,2.20
2022-10-11T03:03:32.512Z,1.75
2022-10-11T03:06:02.195Z,1.95
2022-10-11T03:08:30.238Z,1.90
2022-10-11T03:10:58.373Z,2.13
2022-10-11T03:13:28.641Z,1.98
2022-10-11T03:16:03.273Z,1.92
2022-10-11T03:18:31.868Z,1.90
2022-10-11T03:20:59.510Z,2.10
2022-10-11T03:23:27.024Z,1.55
2022-10-11T03:25:54.570Z,1.50
2022-10-11T03:28:22.218Z,1.70
2022-10-11T03:30:51.444Z,2.05
2022-10-11T03:33:19.783Z,1.70
2022-10-11T03:35:48.932Z,1.60
2022-10-11T03:38:20.131Z,2.17
2022-10-11T03:40:47.711Z,2.10
2022-10-11T03:43:15.565Z,1.80
2022-10-11T03:45:43.091Z,1.55
2022-10-11T03:48:11.319Z,1.77
2022-10-11T03:50:38.889Z,2.05
2022-10-11T03:53:07.304Z,2.20
2022-10-11T03:55:34.926Z,2.10
2022-10-11T03:58:02.523Z,2.03
2022-10-11T04:00:30.206Z,2.03
2022-10-11T04:02:57.835Z,1.88
2022-10-11T04:05:25.742Z,2.00
2022-10-11T04:07:53.219Z,2.00
2022-10-11T04:10:20.823Z,1.90
2022-10-11T04:12:48.412Z,1.90
2022-10-11T04:15:16.770Z,2.17
2022-10-11T04:17:44.291Z,2.58
2022-10-11T04:20:11.960Z,2.47
2022-10-11T04:22:39.493Z,2.25
2022-10-11T04:25:08.151Z,2.35
2022-10-11T04:27:36.015Z,2.20
2022-10-11T04:30:04.124Z,2.33
2022-10-11T04:32:31.615Z,2.30
2022-10-11T04:34:59.188Z,2.10
2022-10-11T04:37:26.812Z,2.28
2022-10-11T04:39:54.381Z,2.13
2022-10-11T04:42:21.857Z,2.20
2022-10-11T04:44:49.488Z,2.20
2022-10-11T04:47:17.051Z,2.15
2022-10-11T04:49:44.663Z,2.08
2022-10-11T04:52:12.119Z,2.20
2022-10-11T04:54:39.581Z,2.33
2022-10-11T04:57:07.030Z,2.53
2022-10-11T04:59:34.586Z,2.60
2022-10-11T05:02:02.331Z,2.50
2022-10-11T05:04:29.846Z,2.55
2022-10-11T05:06:57.277Z,2.55
2022-10-11T05:09:24.890Z,2.33
2022-10-11T05:11:52.382Z,2.38
2022-10-11T05:14:19.933Z,1.67
2022-10-11T05:16:47.726Z,1.98
2022-10-11T05:19:15.159Z,2.67
2022-10-11T05:21:42.731Z,2.30
2022-10-11T05:24:10.506Z,2.20
2022-10-11T05:26:38.250Z,2.40
2022-10-11T05:29:05.902Z,2.40
2022-10-11T05:31:33.859Z,2.38
2022-10-11T05:34:01.515Z,2.45
2022-10-11T05:36:29.075Z,2.60
2022-10-11T05:38:56.680Z,2.70
2022-10-11T05:41:24.271Z,2.72
2022-10-11T05:43:51.996Z,2.45
2022-10-11T05:46:19.598Z,2.40
2022-10-11T05:48:47.070Z,2.40
2022-10-11T05:51:14.638Z,2.40
2022-10-11T05:53:42.268Z,2.33
2022-10-11T05:56:24.696Z,2.53
2022-10-11T05:58:52.901Z,2.35
2022-10-11T06:01:25.517Z,2.60
2022-10-11T06:06:21.482Z,2.42
2022-10-11T06:08:49.478Z,2.85
2022-10-11T06:11:20.352Z,2.85
2022-10-11T06:13:49.002Z,2.72
2022-10-11T06:16:16.648Z,2.88
2022-10-11T06:18:44.214Z,2.80
2022-10-11T06:21:13.291Z,2.65
2022-10-11T06:23:40.798Z,2.58
2022-10-11T06:26:09.814Z,2.72
2022-10-11T06:28:37.750Z,2.55
2022-10-11T06:31:06.446Z,2.55
2022-10-11T06:33:35.132Z,2.72
2022-10-11T06:36:06.382Z,2.85
2022-10-11T06:38:34.253Z,2.83
2022-10-11T06:41:19.497Z,2.60
2022-10-11T06:43:47.144Z,2.70
2022-10-11T06:46:14.668Z,2.78
2022-10-11T06:48:44.188Z,2.85
2022-10-11T06:51:12.620Z,2.88
2022-10-11T06:53:40.470Z,2.75
2022-10-11T06:56:11.102Z,2.63
2022-10-11T06:58:39.682Z,2.63
2022-10-11T07:01:13.769Z,2.72
2022-10-11T07:03:41.507Z,2.85
2022-10-11T07:06:12.157Z,2.42
2022-10-11T07:08:39.981Z,2.60
2022-10-11T07:11:10.771Z,2.90
2022-10-11T07:13:39.559Z,2.70
2022-10-11T07:16:10.298Z,2.40
2022-10-11T07:18:38.554Z,2.72
2022-10-11T07:21:08.816Z,2.63
2022-10-11T07:23:36.475Z,2.55
2022-10-11T07:26:05.141Z,2.38
2022-10-11T07:28:33.392Z,2.80
2022-10-11T07:31:18.150Z,2.72
2022-10-11T07:33:46.177Z,2.63
2022-10-11T07:36:14.546Z,2.40
2022-10-11T07:38:43.976Z,2.20
2022-10-11T07:41:11.979Z,2.80
2022-10-11T07:43:39.958Z,2.65
2022-10-11T07:46:08.014Z,2.58
2022-10-11T07:48:36.877Z,2.53
2022-10-11T07:51:08.578Z,2.50
2022-10-11T07:53:40.596Z,2.60
2022-10-11T07:56:09.975Z,2.70
2022-10-11T07:58:37.397Z,2.70
2022-10-11T08:01:05.043Z,2.75
2022-10-11T08:03:32.738Z,3.10
2022-10-11T08:06:02.695Z,3.20
2022-10-11T08:08:31.456Z,2.58
2022-10-11T08:10:59.703Z,2.88
2022-10-11T08:13:27.614Z,2.97
2022-10-11T08:15:55.122Z,2.60
2022-10-11T08:18:22.739Z,2.97
2022-10-11T08:20:50.328Z,2.90
2022-10-11T08:23:19.737Z,2.58
2022-10-11T08:25:48.642Z,2.25
2022-10-11T08:28:18.127Z,2.60
2022-10-11T08:30:50.670Z,2.42
2022-10-11T08:33:19.520Z,2.25
2022-10-11T08:35:47.757Z,2.70
2022-10-11T08:38:15.946Z,2.50
2022-10-11T08:40:52.395Z,2.42
2022-10-11T08:43:23.205Z,2.75
2022-10-11T08:45:54.812Z,2.72
2022-10-11T08:48:34.759Z,2.67
2022-10-11T08:51:32.627Z,2.70
2022-10-11T08:54:11.365Z,3.20
2022-10-11T08:56:46.461Z,2.45
2022-10-11T08:59:14.103Z,2.58
2022-10-11T09:01:52.940Z,2.30
2022-10-11T09:04:20.708Z,2.72
2022-10-11T09:07:34.471Z,5.22
2022-10-11T09:10:19.929Z,2.88
2022-10-11T09:13:21.115Z,2.78
2022-10-11T09:16:22.515Z,2.60
2022-10-11T09:19:14.084Z,2.80
2022-10-11T09:21:50.506Z,2.90
2022-10-11T09:24:22.324Z,3.20
2022-10-11T09:26:57.455Z,2.70
2022-10-11T09:29:50.749Z,3.15
2022-10-11T09:32:23.829Z,2.83
2022-10-11T09:35:11.950Z,2.65
2022-10-11T09:38:06.077Z,2.70
2022-10-11T09:41:03.776Z,2.50
2022-10-11T09:43:31.962Z,2.60
2022-10-11T09:46:02.774Z,2.58
2022-10-11T09:48:40.629Z,2.88
2022-10-11T09:51:18.533Z,2.97
2022-10-11T09:53:54.429Z,2.53
2022-10-11T09:56:23.906Z,2.78
2022-10-11T09:59:26.420Z,3.10
2022-10-11T10:02:20.630Z,3.33
2022-10-11T10:04:57.557Z,2.70
2022-10-11T10:07:25.189Z,3.28
2022-10-11T10:09:53.336Z,2.90
2022-10-11T10:12:27.993Z,2.55
2022-10-11T10:15:14.041Z,3.03
2022-10-11T10:17:49.338Z,2.53
2022-10-11T10:20:32.581Z,2.60
2022-10-11T10:23:24.851Z,2.28
2022-10-11T10:25:53.705Z,2.55
2022-10-11T10:28:26.702Z,2.65
2022-10-11T10:30:59.630Z,3.35
2022-10-11T10:33:33.192Z,3.00
2022-10-11T10:36:19.085Z,2.72
2022-10-11T10:38:58.866Z,2.88
2022-10-11T10:41:26.824Z,2.85
2022-10-11T10:43:58.755Z,2.83
2022-10-11T10:46:42.633Z,2.90
2022-10-11T10:49:55.114Z,3.35
2022-10-11T10:52:24.670Z,3.00
2022-10-11T10:54:55.322Z,2.60
2022-10-11T10:57:49.385Z,2.13
2022-10-11T11:00:48.040Z,2.50
2022-10-11T11:03:21.537Z,2.03
2022-10-11T11:05:59.364Z,2.15
2022-10-11T11:08:57.361Z,2.75
2022-10-11T11:11:48.242Z,2.45
2022-10-11T11:14:27.639Z,2.90
2022-10-11T11:17:04.314Z,3.08
2022-10-11T11:20:12.621Z,3.10
2022-10-11T11:22:50.608Z,2.50
2022-10-11T11:25:35.866Z,2.53
2022-10-11T11:28:18.759Z,2.00
2022-10-11T11:31:01.417Z,2.33
2022-10-11T11:33:48.912Z,1.83
2022-10-11T11:37:01.553Z,2.00
2022-10-11T11:39:35.982Z,1.90
2022-10-11T11:42:12.386Z,1.70
2022-10-11T11:44:43.484Z,1.98
2022-10-11T11:47:37.304Z,2.10
2022-10-11T11:50:22.732Z,1.60
2022-10-11T11:53:07.843Z,1.85
2022-10-11T11:55:49.606Z,1.83
2022-10-11T11:58:32.182Z,1.80
2022-10-11T12:01:31.400Z,1.80
2022-10-11T12:04:06.390Z,2.40
2022-10-11T12:06:52.418Z,2.15
2022-10-11T12:09:26.597Z,2.35
2022-10-11T12:11:54.110Z,2.10
2022-10-11T12:14:33.679Z,1.85
2022-10-11T12:17:07.200Z,1.80
2022-10-11T12:19:35.963Z,2.15
2022-10-11T12:22:28.193Z,2.58
2022-10-11T12:24:58.327Z,1.80
2022-10-11T12:27:44.122Z,1.80
2022-10-11T12:30:48.504Z,1.33
2022-10-11T12:33:25.068Z,1.70
2022-10-11T12:35:55.792Z,1.60
2022-10-11T12:38:42.178Z,1.77
2022-10-11T12:41:09.571Z,2.03
2022-10-11T12:44:09.277Z,2.15
2022-10-11T12:46:42.639Z,1.73
2022-10-11T12:49:34.256Z,2.10
2022-10-11T12:52:25.616Z,1.70
2022-10-11T12:55:30.425Z,1.98
2022-10-11T12:58:23.505Z,1.77
2022-10-11T13:00:56.541Z,1.75
2022-10-11T13:03:32.793Z,1.80
2022-10-11T13:06:10.423Z,2.00
2022-10-11T13:08:43.307Z,2.20
2022-10-11T13:11:17.116Z,1.70
2022-10-11T13:13:50.080Z,1.58
2022-10-11T13:16:20.757Z,1.90
2022-10-11T13:18:54.282Z,1.95
2022-10-11T13:21:36.688Z,1.60
2022-10-11T13:24:12.882Z,2.53
2022-10-11T13:26:41.552Z,1.60
2022-10-11T13:29:28.002Z,2.03
2022-10-11T13:31:55.868Z,1.60
2022-10-11T13:34:23.821Z,1.83
2022-10-11T13:37:00.274Z,1.83
2022-10-11T13:39:39.370Z,2.03
2022-10-11T13:42:11.081Z,1.83
2022-10-11T13:44:39.783Z,2.20
2022-10-11T13:47:07.492Z,2.15
2022-10-11T13:49:40.499Z,1.85
2022-10-11T13:52:22.301Z,1.70
2022-10-11T13:55:05.004Z,2.57
2022-10-11T14:00:35.131Z,2.08
2022-10-11T14:03:15.081Z,2.00
2022-10-11T14:05:52.608Z,1.83
2022-10-11T14:08:31.073Z,1.85
2022-10-11T14:11:03.752Z,2.15
2022-10-11T14:13:42.408Z,2.13
2022-10-11T14:16:21.238Z,1.73
2022-10-11T14:19:00.765Z,2.20
2022-10-11T14:21:35.372Z,1.70
2022-10-11T14:24:08.416Z,1.80
2022-10-11T14:26:38.806Z,1.90
2022-10-11T14:29:33.331Z,2.05
2022-10-11T14:32:07.564Z,2.33
2022-10-11T14:34:35.500Z,2.63
2022-10-11T14:37:03.022Z,1.80
2022-10-11T14:39:32.355Z,2.03
2022-10-11T14:42:00.767Z,1.80
2022-10-11T14:44:28.197Z,1.75
2022-10-11T14:46:55.844Z,1.95
2022-10-11T14:49:29.918Z,1.58
2022-10-11T14:51:59.682Z,2.10
2022-10-11T14:54:28.997Z,1.80
2022-10-11T14:56:59.447Z,1.80
2022-10-11T14:59:32.021Z,1.80
2022-10-11T15:04:27.995Z,1.65
2022-10-11T15:06:57.015Z,1.80
2022-10-11T15:09:28.996Z,1.60
2022-10-11T15:11:57.198Z,2.00
2022-10-11T15:14:25.506Z,1.70
2022-10-11T15:16:53.534Z,1.42
2022-10-11T15:19:25.259Z,1.42
2022-10-11T15:21:53.225Z,1.80
2022-10-11T15:24:20.892Z,1.60
2022-10-11T15:26:49.136Z,1.60
2022-10-11T15:29:22.231Z,1.85
2022-10-11T15:31:50.107Z,2.00
2022-10-11T15:34:18.154Z,1.50
2022-10-11T15:36:45.902Z,1.52
2022-10-11T15:39:31.703Z,1.05
2022-10-11T15:42:00.196Z,1.42
2022-10-11T15:44:27.689Z,1.60
2022-10-11T15:46:55.291Z,1.40
2022-10-11T15:49:22.775Z,1.42
2022-10-11T15:51:50.314Z,1.30
2022-10-11T15:54:17.718Z,1.40
2022-10-11T15:56:45.190Z,1.30
2022-10-11T15:59:12.942Z,1.58
2022-10-11T16:01:40.872Z,1.40
2022-10-11T16:04:08.428Z,1.40
2022-10-11T16:06:35.923Z,1.33
2022-10-11T16:09:03.951Z,1.63
2022-10-11T16:11:31.379Z,1.73
2022-10-11T16:13:59.027Z,1.55
2022-10-11T16:16:26.503Z,1.25
2022-10-11T16:18:54.803Z,1.58
2022-10-11T16:21:23.872Z,1.35
2022-10-11T16:23:51.257Z,1.55
2022-10-11T16:26:18.797Z,1.48
2022-10-11T16:28:48.241Z,1.77
2022-10-11T16:31:20.045Z,1.60
2022-10-11T16:33:48.146Z,1.53
2022-10-11T16:36:37.291Z,1.77
2022-10-11T16:39:12.124Z,1.48
2022-10-11T16:41:39.903Z,1.50
2022-10-11T16:44:07.766Z,1.52
2022-10-11T16:46:35.651Z,1.63
2022-10-11T16:49:03.243Z,1.50
2022-10-11T16:51:30.874Z,1.73
2022-10-11T16:53:58.591Z,1.48
2022-10-11T16:56:26.273Z,1.88
2022-10-11T16:58:54.702Z,1.52
2022-10-11T17:01:22.483Z,1.70
2022-10-11T17:03:50.987Z,1.80
2022-10-11T17:06:20.607Z,2.50
2022-10-11T17:08:48.123Z,3.40
2022-10-11T17:11:17.716Z,2.55
2022-10-11T17:13:46.925Z,2.60
2022-10-11T17:16:14.821Z,1.90
2022-10-11T17:18:42.605Z,2.00
2022-10-11T17:21:13.849Z,1.42
2022-10-11T17:23:42.058Z,1.52
2022-10-11T17:26:15.184Z,2.10
2022-10-11T17:31:10.677Z,2.10
2022-10-11T17:33:39.382Z,1.92
2022-10-11T17:36:19.764Z,1.33
2022-10-11T17:38:48.845Z,1.80
2022-10-11T17:41:16.771Z,2.22
2022-10-11T17:43:44.425Z,2.58
2022-10-11T17:46:13.789Z,2.17
2022-10-11T17:48:42.372Z,2.15
2022-10-11T17:51:16.290Z,2.40
2022-10-11T17:53:44.639Z,2.45
2022-10-11T17:56:28.831Z,2.35
2022-10-11T17:58:59.383Z,2.80
2022-10-11T18:01:29.542Z,2.40
2022-10-11T18:04:03.367Z,2.70
2022-10-11T18:06:33.933Z,2.22
2022-10-11T18:09:02.959Z,2.40
2022-10-11T18:11:31.346Z,2.92
2022-10-11T18:13:59.047Z,3.50
2022-10-11T18:16:29.288Z,3.50
2022-10-11T18:18:57.722Z,3.67
2022-10-11T18:21:31.218Z,3.20
2022-10-11T18:24:03.342Z,3.67
2022-10-11T18:26:31.221Z,3.05
2022-10-11T18:28:59.166Z,2.92
2022-10-11T18:31:30.079Z,2.88
2022-10-11T18:33:58.100Z,2.80
2022-10-11T18:36:28.297Z,2.35
2022-10-11T18:38:59.534Z,2.90
2022-10-11T18:41:31.504Z,3.03
2022-10-11T18:44:01.738Z,3.10
2022-10-11T18:46:30.067Z,3.40
2022-10-11T18:48:58.666Z,3.30
2022-10-11T18:51:36.685Z,3.40
2022-10-11T18:54:11.419Z,3.30
2022-10-11T18:56:44.131Z,3.28
2022-10-11T18:59:12.260Z,3.47
2022-10-11T19:01:42.102Z,3.35
2022-10-11T19:04:11.611Z,2.97
2022-10-11T19:06:42.420Z,3.50
2022-10-11T19:09:17.957Z,3.17
2022-10-11T19:11:45.590Z,2.95
2022-10-11T19:14:15.637Z,3.30
2022-10-11T19:16:46.477Z,3.30
2022-10-11T19:19:13.999Z,2.75
2022-10-11T19:21:42.234Z,3.30
2022-10-11T19:24:10.177Z,2.92
2022-10-11T19:26:40.293Z,3.60
2022-10-11T19:29:20.635Z,3.10
2022-10-11T19:31:59.366Z,3.30
2022-10-11T19:34:28.153Z,3.70
2022-10-11T19:36:56.949Z,4.00
2022-10-11T19:39:25.791Z,3.53
2022-10-11T19:41:54.361Z,3.70
2022-10-11T19:44:22.048Z,3.40
2022-10-11T19:46:52.476Z,3.55
2022-10-11T19:49:25.131Z,2.97
2022-10-11T19:51:53.973Z,3.10
2022-10-11T19:54:21.885Z,2.85
2022-10-11T19:56:50.574Z,3.05
2022-10-11T19:59:18.211Z,3.00
2022-10-11T20:01:51.274Z,3.35
2022-10-11T20:04:47.141Z,3.20
2022-10-11T20:07:07.553Z,3.08
2022-10-11T20:09:35.140Z,3.00
2022-10-11T20:12:02.561Z,3.30
2022-10-11T20:14:30.078Z,3.53
2022-10-11T20:16:58.112Z,3.60
2022-10-11T20:19:30.620Z,3.40
2022-10-11T20:21:59.090Z,3.17
2022-10-11T20:24:29.133Z,3.10
2022-10-11T20:26:56.552Z,3.60
2022-10-11T20:29:25.616Z,3.80
2022-10-11T20:31:53.215Z,3.65
2022-10-11T20:34:20.831Z,3.50
2022-10-11T20:36:49.384Z,3.47
2022-10-11T20:39:17.249Z,3.40
2022-10-11T20:41:44.772Z,3.40
2022-10-11T20:44:13.464Z,3.45
2022-10-11T20:46:41.330Z,2.92
2022-10-11T20:49:11.119Z,3.80
2022-10-11T20:51:41.766Z,3.40
2022-10-11T20:54:09.949Z,3.67
2022-10-11T20:56:38.854Z,3.35
2022-10-11T20:59:07.017Z,3.50
2022-10-11T21:01:37.355Z,3.45
2022-10-11T21:04:06.620Z,3.72
2022-10-11T21:06:34.868Z,3.13
2022-10-11T21:09:02.982Z,3.25
2022-10-11T21:11:33.756Z,3.25
2022-10-11T21:14:03.666Z,3.40
2022-10-11T21:16:32.308Z,3.20
2022-10-11T21:19:01.046Z,3.40
2022-10-11T21:21:29.681Z,3.25
2022-10-11T21:23:59.124Z,3.10
2022-10-11T21:26:27.720Z,3.08
2022-10-11T21:28:55.265Z,3.33
2022-10-11T21:31:23.475Z,3.20
2022-10-11T21:33:51.864Z,3.33
2022-10-11T21:36:21.734Z,3.80
2022-10-11T21:38:50.463Z,3.50
2022-10-11T21:41:25.753Z,3.90
2022-10-11T21:43:53.789Z,3.83
2022-10-11T21:46:41.996Z,3.78
2022-10-11T21:49:15.062Z,3.80
2022-10-11T21:51:42.832Z,3.45
2022-10-11T21:54:10.297Z,4.10
2022-10-11T21:56:37.776Z,3.78
2022-10-11T21:59:07.941Z,4.43
2022-10-11T22:01:39.009Z,3.97
2022-10-11T22:04:09.805Z,4.57
2022-10-11T22:06:38.103Z,4.85
2022-10-11T22:09:07.313Z,4.03
2022-10-11T22:11:35.227Z,4.60
2022-10-11T22:14:03.187Z,3.88
2022-10-11T22:16:32.937Z,4.07
2022-10-11T22:19:00.469Z,4.18
2022-10-11T22:21:28.052Z,3.88
2022-10-11T22:23:55.689Z,3.55
2022-10-11T22:26:26.192Z,3.60
2022-10-11T22:28:54.043Z,3.85
2022-10-11T22:31:21.848Z,3.20
2022-10-11T22:33:53.540Z,3.03
2022-10-11T22:36:21.361Z,3.30
2022-10-11T22:38:48.949Z,3.05
2022-10-11T22:41:16.382Z,2.95
2022-10-11T22:43:43.970Z,2.97
2022-10-11T22:46:11.619Z,3.33
2022-10-11T22:48:39.137Z,3.20
2022-10-11T22:51:06.774Z,2.83
2022-10-11T22:53:34.210Z,2.90
2022-10-11T22:56:01.766Z,2.88
2022-10-11T22:58:29.282Z,3.13
2022-10-11T23:00:56.764Z,2.97
2022-10-11T23:03:25.250Z,2.63
2022-10-11T23:05:58.889Z,3.25
2022-10-11T23:08:26.629Z,2.83
2022-10-11T23:10:54.512Z,2.97
2022-10-11T23:13:22.435Z,2.70
2022-10-11T23:15:50.129Z,2.70
2022-10-11T23:18:17.823Z,2.70
2022-10-11T23:20:45.320Z,2.63
2022-10-11T23:23:12.905Z,2.58
2022-10-11T23:25:40.529Z,2.70
2022-10-11T23:28:08.007Z,2.40
2022-10-11T23:30:35.594Z,2.60
2022-10-11T23:33:03.107Z,2.25
2022-10-11T23:35:30.829Z,2.13
2022-10-11T23:37:58.302Z,2.20
2022-10-11T23:40:25.808Z,2.47
2022-10-11T23:42:53.285Z,2.10
2022-10-11T23:45:20.755Z,2.55
2022-10-11T23:47:48.185Z,2.20
2022-10-11T23:50:15.693Z,2.33
2022-10-11T23:52:43.096Z,2.20
2022-10-11T23:55:10.696Z,2.40
2022-10-11T23:57:38.503Z,2.60
